createdAt,value
2018-09-15T00:00:14.571Z,7.85
2018-09-15T00:02:43.826Z,6.22
2018-09-15T00:05:13.125Z,5.97
2018-09-15T00:07:42.179Z,5.37
2018-09-15T00:10:11.404Z,6.05
2018-09-15T00:12:40.524Z,5.65
2018-09-15T00:15:10.963Z,5.58
2018-09-15T00:17:41.356Z,6.03
2018-09-15T00:20:10.525Z,6.35
2018-09-15T00:22:39.592Z,6.83
2018-09-15T00:25:08.699Z,6.90
2018-09-15T00:27:37.676Z,6.30
2018-09-15T00:30:06.571Z,7.15
2018-09-15T00:32:35.751Z,6.87
2018-09-15T00:37:39.085Z,6.10
2018-09-15T00:40:08.246Z,5.80
2018-09-15T00:42:37.570Z,6.90
2018-09-15T00:45:06.878Z,6.70
2018-09-15T00:47:35.631Z,7.05
2018-09-15T00:50:04.660Z,5.85
2018-09-15T00:52:33.662Z,5.83
2018-09-15T00:55:02.679Z,5.42
2018-09-15T00:57:31.514Z,6.03
2018-09-15T01:00:01.417Z,7.37
2018-09-15T01:02:30.610Z,6.47
2018-09-15T01:04:59.340Z,6.55
2018-09-15T01:07:28.403Z,6.67
2018-09-15T01:09:57.326Z,7.03
2018-09-15T01:12:26.213Z,7.53
2018-09-15T01:14:55.835Z,8.03
2018-09-15T01:17:24.710Z,7.92
2018-09-15T01:19:54.125Z,7.33
2018-09-15T01:22:23.671Z,7.20
2018-09-15T01:24:52.717Z,6.62
2018-09-15T01:27:21.901Z,6.58
2018-09-15T01:29:50.935Z,6.87
2018-09-15T01:32:20.115Z,6.25
2018-09-15T01:34:49.523Z,7.17
2018-09-15T01:37:18.779Z,6.30
2018-09-15T01:39:47.592Z,6.60
2018-09-15T01:42:17.424Z,6.47
2018-09-15T01:44:47.106Z,7.17
2018-09-15T01:47:15.914Z,6.60
2018-09-15T01:49:44.964Z,6.60
2018-09-15T01:52:14.163Z,7.20
2018-09-15T01:54:43.635Z,6.30
2018-09-15T01:57:12.998Z,6.60
2018-09-15T01:59:42.279Z,6.75
2018-09-15T02:02:12.096Z,6.60
2018-09-15T02:04:41.252Z,7.15
2018-09-15T02:07:10.777Z,7.22
2018-09-15T02:09:39.807Z,6.97
2018-09-15T02:12:08.640Z,6.90
2018-09-15T02:14:37.956Z,7.05
2018-09-15T02:17:07.138Z,6.87
2018-09-15T02:19:36.222Z,7.05
2018-09-15T02:22:05.554Z,7.33
2018-09-15T02:24:34.371Z,7.75
2018-09-15T02:27:03.187Z,5.40
2018-09-15T02:29:32.647Z,5.33
2018-09-15T02:32:02.063Z,5.22
2018-09-15T02:34:30.993Z,5.08
2018-09-15T02:37:00.425Z,5.70
2018-09-15T02:39:29.298Z,6.97
2018-09-15T02:41:58.307Z,7.47
2018-09-15T02:44:27.419Z,7.92
2018-09-15T02:46:56.679Z,7.53
2018-09-15T02:49:25.463Z,7.40
2018-09-15T02:51:54.515Z,7.50
2018-09-15T02:54:23.351Z,8.03
2018-09-15T02:56:52.787Z,7.22
2018-09-15T02:59:22.955Z,7.65
2018-09-15T03:01:52.078Z,7.65
2018-09-15T03:04:20.800Z,7.30
2018-09-15T03:06:49.902Z,7.97
2018-09-15T03:09:18.777Z,8.00
2018-09-15T03:11:47.521Z,7.95
2018-09-15T03:14:16.899Z,8.68
2018-09-15T03:16:45.836Z,7.45
2018-09-15T03:19:14.869Z,8.45
2018-09-15T03:21:44.499Z,8.85
2018-09-15T03:24:13.318Z,9.13
2018-09-15T03:26:42.046Z,9.55
2018-09-15T03:29:11.314Z,8.75
2018-09-15T03:31:40.233Z,8.40
2018-09-15T03:34:09.029Z,8.80
2018-09-15T03:36:38.036Z,7.83
2018-09-15T03:39:09.879Z,8.85
2018-09-15T03:41:38.900Z,8.00
2018-09-15T03:44:08.315Z,8.65
2018-09-15T03:46:37.171Z,8.28
2018-09-15T03:49:06.139Z,8.15
2018-09-15T03:51:35.182Z,8.73
2018-09-15T03:54:04.456Z,8.33
2018-09-15T03:56:34.494Z,8.33
2018-09-15T03:59:04.206Z,10.00
2018-09-15T04:01:32.971Z,10.48
2018-09-15T04:04:02.091Z,8.05
2018-09-15T04:06:31.702Z,6.25
2018-09-15T04:09:00.790Z,6.65
2018-09-15T04:11:30.186Z,6.22
2018-09-15T04:13:59.827Z,5.85
2018-09-15T04:16:28.874Z,6.12
2018-09-15T04:18:57.793Z,6.20
2018-09-15T04:21:27.214Z,7.33
2018-09-15T04:23:56.288Z,7.58
2018-09-15T04:26:25.279Z,7.55
2018-09-15T04:28:54.567Z,6.60
2018-09-15T04:31:23.367Z,6.10
2018-09-15T04:33:52.266Z,6.40
2018-09-15T04:36:21.627Z,5.60
2018-09-15T04:38:50.367Z,5.97
2018-09-15T04:41:19.388Z,6.55
2018-09-15T04:43:49.117Z,6.28
2018-09-15T04:46:17.861Z,5.70
2018-09-15T04:48:46.641Z,5.10
2018-09-15T04:51:15.863Z,5.60
2018-09-15T04:53:45.069Z,4.83
2018-09-15T04:56:13.906Z,6.70
2018-09-15T04:58:43.336Z,6.15
2018-09-15T05:01:12.202Z,5.47
2018-09-15T05:03:41.084Z,5.22
2018-09-15T05:06:09.951Z,6.00
2018-09-15T05:08:40.056Z,5.50
2018-09-15T05:11:08.919Z,5.10
2018-09-15T05:13:39.043Z,4.22
2018-09-15T05:16:07.823Z,4.78
2018-09-15T05:18:36.746Z,6.70
2018-09-15T05:21:05.767Z,4.65
2018-09-15T05:23:34.693Z,4.92
2018-09-15T05:26:03.719Z,5.45
2018-09-15T05:28:33.242Z,5.03
2018-09-15T05:31:02.434Z,5.80
2018-09-15T05:33:31.269Z,4.33
2018-09-15T05:36:01.042Z,4.78
2018-09-15T05:38:30.032Z,5.10
2018-09-15T05:40:58.967Z,5.05
2018-09-15T05:43:28.850Z,6.28
2018-09-15T05:45:57.698Z,5.08
2018-09-15T05:48:26.729Z,4.70
2018-09-15T05:50:55.879Z,5.65
2018-09-15T05:53:24.861Z,6.87
2018-09-15T05:55:53.938Z,6.85
2018-09-15T05:58:23.098Z,6.83
2018-09-15T06:00:52.523Z,7.10
2018-09-15T06:03:21.386Z,9.33
2018-09-15T06:05:50.514Z,7.30
2018-09-15T06:08:19.587Z,7.95
2018-09-15T06:10:48.650Z,7.42
2018-09-15T06:13:18.383Z,7.80
2018-09-15T06:15:47.398Z,7.65
2018-09-15T06:18:16.259Z,7.10
2018-09-15T06:20:45.497Z,7.33
2018-09-15T06:23:14.342Z,7.40
2018-09-15T06:25:43.443Z,8.33
2018-09-15T06:28:12.383Z,8.23
2018-09-15T06:30:41.374Z,7.40
2018-09-15T06:33:10.938Z,7.47
2018-09-15T06:35:40.199Z,6.70
2018-09-15T06:38:09.372Z,8.00
2018-09-15T06:40:38.473Z,6.45
2018-09-15T06:43:07.491Z,6.53
2018-09-15T06:45:37.346Z,6.08
2018-09-15T06:48:06.727Z,6.37
2018-09-15T06:50:36.388Z,6.85
2018-09-15T06:53:05.595Z,6.62
2018-09-15T06:55:35.288Z,6.92
2018-09-15T06:58:04.531Z,8.03
2018-09-15T07:00:34.112Z,7.53
2018-09-15T07:03:03.081Z,8.93
2018-09-15T07:05:32.375Z,9.15
2018-09-15T07:08:01.944Z,8.35
2018-09-15T07:10:31.534Z,9.35
2018-09-15T07:13:00.841Z,8.80
2018-09-15T07:15:29.783Z,10.32
2018-09-15T07:17:58.950Z,10.15
2018-09-15T07:20:28.800Z,10.40
2018-09-15T07:22:57.540Z,10.65
2018-09-15T07:25:27.179Z,10.13
2018-09-15T07:27:56.092Z,10.38
2018-09-15T07:30:25.341Z,11.93
2018-09-15T07:32:54.981Z,9.98
2018-09-15T07:35:24.191Z,9.83
2018-09-15T07:37:53.070Z,9.30
2018-09-15T07:40:22.116Z,9.65
2018-09-15T07:42:51.302Z,10.18
2018-09-15T07:45:20.289Z,10.15
2018-09-15T07:47:49.097Z,9.78
2018-09-15T07:50:18.334Z,10.60
2018-09-15T07:52:48.104Z,9.60
2018-09-15T07:55:17.003Z,9.73
2018-09-15T07:57:46.783Z,9.75
2018-09-15T08:00:15.680Z,10.45
2018-09-15T08:02:44.705Z,9.83
2018-09-15T08:05:13.596Z,9.80
2018-09-15T08:07:42.502Z,9.43
2018-09-15T08:10:11.972Z,9.75
2018-09-15T08:12:41.619Z,9.43
2018-09-15T08:15:10.450Z,10.13
2018-09-15T08:17:39.490Z,10.35
2018-09-15T08:20:08.819Z,9.75
2018-09-15T08:22:37.895Z,9.93
2018-09-15T08:25:07.183Z,9.30
2018-09-15T08:27:36.212Z,9.18
2018-09-15T08:30:05.185Z,8.93
2018-09-15T08:32:34.068Z,9.65
2018-09-15T08:35:03.548Z,8.28
2018-09-15T08:37:33.055Z,6.75
2018-09-15T08:40:02.283Z,7.47
2018-09-15T08:42:31.547Z,6.15
2018-09-15T08:45:00.485Z,6.67
2018-09-15T08:47:29.879Z,5.62
2018-09-15T08:49:59.754Z,6.35
2018-09-15T08:52:28.866Z,5.62
2018-09-15T08:54:58.267Z,4.65
2018-09-15T08:57:27.551Z,5.15
2018-09-15T08:59:57.095Z,4.40
2018-09-15T09:02:26.155Z,5.47
2018-09-15T09:04:55.339Z,5.50
2018-09-15T09:07:24.303Z,5.25
2018-09-15T09:09:53.496Z,3.87
2018-09-15T09:12:22.834Z,4.75
2018-09-15T09:14:52.511Z,3.52
2018-09-15T09:17:21.319Z,4.85
2018-09-15T09:19:51.064Z,5.08
2018-09-15T09:22:20.011Z,4.65
2018-09-15T09:24:49.112Z,3.70
2018-09-15T09:27:18.792Z,2.95
2018-09-15T09:29:48.186Z,2.60
2018-09-15T09:32:17.081Z,3.20
2018-09-15T09:34:45.984Z,2.58
2018-09-15T09:37:15.027Z,2.37
2018-09-15T09:39:44.248Z,2.70
2018-09-15T09:42:13.645Z,2.05
2018-09-15T09:44:42.771Z,2.08
2018-09-15T09:47:12.199Z,2.67
2018-09-15T09:49:41.799Z,2.47
2018-09-15T09:52:11.123Z,2.20
2018-09-15T09:54:39.983Z,2.15
2018-09-15T09:57:09.223Z,1.92
2018-09-15T09:59:38.304Z,2.27
2018-09-15T10:02:13.367Z,2.65
2018-09-15T10:04:42.289Z,2.85
2018-09-15T10:07:11.536Z,2.75
2018-09-15T10:09:41.466Z,2.62
2018-09-15T10:12:10.236Z,2.70
2018-09-15T10:14:39.238Z,2.83
2018-09-15T10:17:08.400Z,2.72
2018-09-15T10:19:37.596Z,2.10
2018-09-15T10:22:06.786Z,1.60
2018-09-15T10:24:35.947Z,1.80
2018-09-15T10:27:04.918Z,2.30
2018-09-15T10:29:34.322Z,1.70
2018-09-15T10:32:04.471Z,2.17
2018-09-15T10:34:34.006Z,3.25
2018-09-15T10:37:03.053Z,2.25
2018-09-15T10:39:32.154Z,1.98
2018-09-15T10:42:01.290Z,1.72
2018-09-15T10:44:30.373Z,1.35
2018-09-15T10:46:59.627Z,1.40
2018-09-15T10:49:28.552Z,2.20
2018-09-15T10:51:57.511Z,1.72
2018-09-15T10:54:26.838Z,1.98
2018-09-15T10:56:55.763Z,1.22
2018-09-15T10:59:24.618Z,1.45
2018-09-15T11:01:54.649Z,1.20
2018-09-15T11:04:23.819Z,1.92
2018-09-15T11:06:52.920Z,1.00
2018-09-15T11:09:22.148Z,1.17
2018-09-15T11:11:51.213Z,1.10
2018-09-15T11:14:20.114Z,0.90
2018-09-15T11:16:50.238Z,1.20
2018-09-15T11:19:19.395Z,0.90
2018-09-15T11:21:48.431Z,1.70
2018-09-15T11:24:17.651Z,1.40
2018-09-15T11:26:46.720Z,1.27
2018-09-15T11:29:16.114Z,1.60
2018-09-15T11:31:45.263Z,1.20
2018-09-15T11:34:14.730Z,1.77
2018-09-15T11:36:43.719Z,1.85
2018-09-15T11:39:13.502Z,1.55
2018-09-15T11:41:42.431Z,1.52
2018-09-15T11:44:11.524Z,1.70
2018-09-15T11:46:41.364Z,1.92
2018-09-15T11:49:10.648Z,1.55
2018-09-15T11:51:39.651Z,2.27
2018-09-15T11:54:09.799Z,1.67
2018-09-15T11:56:39.335Z,1.20
2018-09-15T11:59:08.362Z,1.60
2018-09-15T12:01:37.535Z,1.98
2018-09-15T12:04:07.073Z,1.35
2018-09-15T12:06:36.198Z,1.42
2018-09-15T12:09:07.021Z,1.80
2018-09-15T12:11:36.223Z,1.82
2018-09-15T12:14:05.766Z,2.00
2018-09-15T12:16:35.140Z,2.17
2018-09-15T12:19:04.388Z,2.60
2018-09-15T12:21:33.502Z,2.50
2018-09-15T12:24:03.244Z,2.55
2018-09-15T12:26:32.412Z,2.33
2018-09-15T12:29:01.180Z,3.15
2018-09-15T12:31:30.107Z,1.87
2018-09-15T12:34:00.522Z,2.10
2018-09-15T12:36:29.411Z,1.60
2018-09-15T12:38:58.523Z,2.30
2018-09-15T12:41:27.487Z,1.90
2018-09-15T12:43:57.010Z,2.08
2018-09-15T12:46:26.426Z,2.10
2018-09-15T12:48:55.382Z,2.70
2018-09-15T12:51:24.299Z,2.65
2018-09-15T12:53:53.305Z,2.37
2018-09-15T12:56:22.099Z,2.50
2018-09-15T12:58:51.092Z,2.30
2018-09-15T13:01:20.401Z,2.67
2018-09-15T13:03:49.270Z,2.55
2018-09-15T13:06:18.701Z,2.30
2018-09-15T13:08:47.922Z,3.00
2018-09-15T13:11:16.777Z,2.00
2018-09-15T13:13:45.554Z,3.70
2018-09-15T13:16:14.683Z,2.83
2018-09-15T13:18:44.028Z,2.47
2018-09-15T13:21:12.934Z,2.37
2018-09-15T13:23:42.932Z,2.80
2018-09-15T13:26:11.862Z,2.60
2018-09-15T13:28:40.750Z,2.70
2018-09-15T13:31:09.808Z,4.65
2018-09-15T13:33:38.467Z,2.83
2018-09-15T13:36:07.590Z,2.52
2018-09-15T13:38:37.082Z,2.60
2018-09-15T13:41:06.146Z,2.45
2018-09-15T13:43:35.638Z,2.75
2018-09-15T13:46:05.999Z,3.10
2018-09-15T13:48:35.266Z,3.50
2018-09-15T13:51:05.398Z,3.60
2018-09-15T13:53:34.609Z,3.50
2018-09-15T13:56:04.415Z,3.52
2018-09-15T13:58:33.613Z,3.70
2018-09-15T14:01:03.138Z,3.92
2018-09-15T14:03:32.115Z,3.33
2018-09-15T14:06:01.411Z,3.45
2018-09-15T14:08:31.667Z,4.50
2018-09-15T14:11:00.649Z,3.60
2018-09-15T14:13:29.623Z,4.22
2018-09-15T14:15:59.244Z,3.17
2018-09-15T14:18:28.534Z,2.98
2018-09-15T14:20:57.915Z,3.98
2018-09-15T14:23:27.679Z,3.87
2018-09-15T14:25:56.746Z,4.67
2018-09-15T14:28:25.973Z,3.90
2018-09-15T14:30:55.360Z,4.00
2018-09-15T14:33:24.543Z,4.40
2018-09-15T14:35:54.099Z,4.35
2018-09-15T14:38:23.878Z,4.25
2018-09-15T14:40:53.174Z,4.80
2018-09-15T14:43:22.372Z,4.17
2018-09-15T14:45:51.796Z,4.20
2018-09-15T14:48:20.995Z,4.55
2018-09-15T14:50:50.071Z,5.25
2018-09-15T14:53:19.044Z,4.80
2018-09-15T14:55:48.771Z,3.92
2018-09-15T14:58:18.897Z,5.42
2018-09-15T15:00:47.791Z,4.78
2018-09-15T15:03:16.767Z,4.92
2018-09-15T15:05:45.860Z,5.00
2018-09-15T15:08:14.752Z,4.92
2018-09-15T15:10:44.989Z,5.28
2018-09-15T15:13:14.215Z,5.25
2018-09-15T15:15:43.197Z,5.60
2018-09-15T15:18:12.646Z,5.45
2018-09-15T15:20:42.027Z,5.58
2018-09-15T15:23:10.884Z,5.37
2018-09-15T15:25:40.428Z,5.58
2018-09-15T15:28:10.578Z,4.87
2018-09-15T15:30:39.779Z,5.28
2018-09-15T15:33:08.894Z,5.17
2018-09-15T15:35:38.139Z,5.55
2018-09-15T15:38:06.935Z,5.58
2018-09-15T15:40:35.944Z,5.90
2018-09-15T15:43:05.371Z,4.78
2018-09-15T15:45:34.147Z,5.92
2018-09-15T15:48:03.046Z,5.67
2018-09-15T15:50:32.575Z,5.75
2018-09-15T15:53:01.524Z,5.55
2018-09-15T15:55:30.529Z,6.10
2018-09-15T15:58:00.047Z,6.10
2018-09-15T16:00:29.607Z,6.15
2018-09-15T16:02:58.429Z,5.75
2018-09-15T16:05:27.631Z,5.83
2018-09-15T16:07:56.631Z,7.47
2018-09-15T16:10:25.530Z,6.00
2018-09-15T16:12:54.451Z,6.70
2018-09-15T16:15:23.512Z,6.28
2018-09-15T16:17:52.390Z,6.55
2018-09-15T16:20:21.694Z,6.42
2018-09-15T16:22:50.595Z,6.35
2018-09-15T16:25:19.591Z,6.30
2018-09-15T16:27:50.034Z,5.95
2018-09-15T16:30:19.119Z,6.30
2018-09-15T16:32:48.207Z,6.33
2018-09-15T16:35:17.351Z,6.58
2018-09-15T16:37:46.807Z,6.95
2018-09-15T16:40:16.031Z,6.47
2018-09-15T16:42:45.355Z,6.80
2018-09-15T16:45:14.274Z,7.37
2018-09-15T16:47:43.392Z,7.47
2018-09-15T16:50:12.402Z,7.60
2018-09-15T16:52:41.426Z,6.30
2018-09-15T16:55:10.819Z,6.67
2018-09-15T16:57:39.980Z,6.78
2018-09-15T17:00:09.070Z,9.10
2018-09-15T17:02:38.324Z,10.70
2018-09-15T17:05:07.189Z,10.03
2018-09-15T17:07:35.874Z,9.78
2018-09-15T17:10:05.328Z,10.25
2018-09-15T17:12:34.372Z,14.10
2018-09-15T17:15:03.182Z,10.98
2018-09-15T17:17:33.240Z,10.43
2018-09-15T17:20:02.377Z,11.60
2018-09-15T17:22:31.912Z,11.38
2018-09-15T17:25:01.098Z,10.70
2018-09-15T17:27:30.175Z,14.33
2018-09-15T17:29:59.901Z,12.55
2018-09-15T17:32:28.858Z,11.68
2018-09-15T17:34:58.486Z,10.48
2018-09-15T17:37:27.363Z,10.03
2018-09-15T17:39:56.489Z,10.05
2018-09-15T17:42:25.698Z,11.10
2018-09-15T17:44:54.686Z,9.80
2018-09-15T17:47:23.983Z,9.28
2018-09-15T17:49:52.777Z,9.25
2018-09-15T17:52:21.965Z,11.85
2018-09-15T17:54:51.361Z,10.18
2018-09-15T17:57:20.254Z,8.85
2018-09-15T17:59:49.295Z,9.58
2018-09-15T18:02:19.238Z,10.10
2018-09-15T18:04:48.287Z,11.63
2018-09-15T18:07:17.158Z,9.53
2018-09-15T18:09:46.920Z,11.57
2018-09-15T18:12:15.898Z,11.70
2018-09-15T18:14:45.076Z,11.05
2018-09-15T18:17:14.605Z,12.82
2018-09-15T18:19:44.302Z,11.38
2018-09-15T18:22:13.387Z,11.08
2018-09-15T18:24:42.305Z,12.40
2018-09-15T18:27:11.278Z,12.15
2018-09-15T18:29:40.147Z,11.78
2018-09-15T18:32:09.266Z,10.68
2018-09-15T18:34:38.159Z,11.50
2018-09-15T18:37:07.300Z,12.30
2018-09-15T18:39:36.450Z,11.45
2018-09-15T18:42:05.553Z,11.12
2018-09-15T18:44:35.079Z,11.48
2018-09-15T18:47:04.165Z,11.12
2018-09-15T18:49:34.171Z,11.15
2018-09-15T18:52:03.294Z,11.73
2018-09-15T18:54:32.107Z,11.83
2018-09-15T18:57:01.222Z,10.80
2018-09-15T18:59:30.395Z,11.60
2018-09-15T19:02:00.047Z,11.45
2018-09-15T19:04:29.576Z,11.22
2018-09-15T19:06:59.760Z,11.30
2018-09-15T19:09:29.709Z,10.60
2018-09-15T19:11:59.606Z,10.58
2018-09-15T19:14:28.427Z,10.70
2018-09-15T19:16:57.310Z,10.82
2018-09-15T19:19:26.047Z,10.72
2018-09-15T19:21:55.445Z,11.45
2018-09-15T19:24:24.404Z,10.82
2018-09-15T19:26:53.329Z,10.43
2018-09-15T19:29:22.692Z,11.18
2018-09-15T19:31:51.700Z,10.85
2018-09-15T19:34:20.686Z,11.15
2018-09-15T19:36:50.318Z,11.05
2018-09-15T19:39:19.302Z,10.95
2018-09-15T19:41:49.068Z,10.13
2018-09-15T19:44:18.627Z,10.45
2018-09-15T19:46:47.749Z,10.18
2018-09-15T19:49:16.766Z,9.63
2018-09-15T19:51:45.953Z,10.48
2018-09-15T19:54:14.787Z,10.40
2018-09-15T19:56:44.378Z,10.30
2018-09-15T19:59:13.684Z,9.75
2018-09-15T20:01:42.671Z,10.13
2018-09-15T20:04:12.086Z,10.18
2018-09-15T20:06:40.918Z,10.95
2018-09-15T20:09:10.886Z,10.40
2018-09-15T20:11:39.770Z,10.53
2018-09-15T20:14:09.457Z,10.88
2018-09-15T20:16:36.970Z,10.50
2018-09-15T20:19:04.573Z,10.63
2018-09-15T20:21:32.019Z,10.85
2018-09-15T20:24:00.855Z,10.13
2018-09-15T20:26:29.779Z,10.20
2018-09-15T20:28:59.073Z,9.43
2018-09-15T20:31:27.934Z,9.60
2018-09-15T20:33:58.021Z,9.15
2018-09-15T20:36:26.734Z,9.53
2018-09-15T20:38:55.671Z,9.05
2018-09-15T20:41:25.147Z,9.20
2018-09-15T20:43:54.268Z,9.80
2018-09-15T20:46:23.147Z,9.48
2018-09-15T20:48:52.055Z,9.73
2018-09-15T20:51:21.579Z,9.40
2018-09-15T20:53:50.434Z,8.88
2018-09-15T20:56:19.545Z,9.18
2018-09-15T20:58:48.428Z,9.05
2018-09-15T21:01:17.215Z,9.38
2018-09-15T21:03:46.187Z,8.85
2018-09-15T21:06:15.478Z,12.20
2018-09-15T21:08:45.038Z,9.45
2018-09-15T21:11:14.095Z,8.50
2018-09-15T21:13:43.219Z,8.08
2018-09-15T21:16:12.423Z,8.83
2018-09-15T21:18:42.758Z,8.25
2018-09-15T21:21:12.003Z,9.23
2018-09-15T21:23:41.481Z,8.70
2018-09-15T21:26:10.483Z,8.53
2018-09-15T21:28:39.346Z,8.60
2018-09-15T21:31:08.432Z,8.98
2018-09-15T21:33:37.642Z,8.50
2018-09-15T21:36:06.628Z,8.20
2018-09-15T21:38:36.266Z,8.58
2018-09-15T21:41:05.602Z,8.90
2018-09-15T21:43:34.708Z,8.38
2018-09-15T21:46:03.887Z,8.88
2018-09-15T21:48:32.754Z,9.35
2018-09-15T21:51:02.437Z,8.98
2018-09-15T21:53:31.449Z,9.55
2018-09-15T21:56:00.648Z,9.70
2018-09-15T21:58:29.614Z,9.20
2018-09-15T22:01:04.670Z,11.12
2018-09-15T22:03:39.035Z,8.78
2018-09-15T22:06:08.496Z,8.75
2018-09-15T22:08:37.475Z,9.90
2018-09-15T22:11:06.584Z,9.73
2018-09-15T22:13:35.796Z,9.08
2018-09-15T22:16:04.983Z,9.60
2018-09-15T22:18:33.850Z,9.50
2018-09-15T22:21:04.128Z,9.45
2018-09-15T22:23:33.094Z,9.23
2018-09-15T22:26:02.702Z,9.83
2018-09-15T22:28:32.528Z,9.28
2018-09-15T22:31:01.502Z,9.38
2018-09-15T22:33:30.498Z,8.88
2018-09-15T22:35:59.976Z,9.10
2018-09-15T22:38:29.518Z,9.78
2018-09-15T22:40:58.494Z,9.45
2018-09-15T22:43:27.614Z,9.78
2018-09-15T22:45:56.290Z,10.10
2018-09-15T22:48:25.159Z,9.83
2018-09-15T22:50:54.294Z,9.25
2018-09-15T22:53:23.890Z,9.93
2018-09-15T22:55:53.098Z,10.10
2018-09-15T22:58:22.731Z,9.03
2018-09-15T23:00:52.114Z,8.78
2018-09-15T23:03:21.515Z,10.08
2018-09-15T23:05:51.110Z,9.70
2018-09-15T23:08:19.830Z,9.73
2018-09-15T23:10:48.794Z,8.95
2018-09-15T23:13:17.900Z,8.50
2018-09-15T23:15:47.412Z,8.18
2018-09-15T23:18:16.583Z,8.85
2018-09-15T23:20:46.005Z,9.08
2018-09-15T23:23:15.106Z,9.03
2018-09-15T23:25:44.306Z,8.85
2018-09-15T23:28:13.626Z,8.70
2018-09-15T23:30:42.684Z,8.98
2018-09-15T23:33:11.394Z,9.00
2018-09-15T23:35:40.935Z,8.78
2018-09-15T23:38:09.994Z,9.05
2018-09-15T23:40:39.087Z,8.83
2018-09-15T23:43:07.999Z,8.53
2018-09-15T23:45:37.166Z,8.68
2018-09-15T23:48:05.855Z,9.50
2018-09-15T23:50:35.603Z,8.13
2018-09-15T23:53:04.563Z,8.80
2018-09-15T23:55:34.099Z,9.53
2018-09-15T23:58:03.709Z,8.53
